This is the latest recevied weather packets stored in our database for station/object WC4PEM-6. If no packets are shown the sender has not sent any weather packets the latest 1 day(s).
| Time | Temp. | Humidity | Pressure | Rain* | Wind** | Luminosity | Snow |
|---|---|---|---|---|---|---|---|
| 1836274579 | 25° C | 83% | 1015.8 hPa | 0 mm | 0.45 m/s, 76° | - | - |
| 1836274429 | 24.44° C | 84% | 1015.7 hPa | 0 mm | 0.45 m/s, 83° | - | - |
| 1836274284 | 25° C | 80% | 1015.9 hPa | 0 mm | 0.45 m/s, 51° | - | - |
| 1836274279 | 25° C | 83% | 1015.8 hPa | 0 mm | 0.45 m/s, 51° | - | - |
| 1836274129 | 24.44° C | 83% | 1015.9 hPa | 0 mm | 0.45 m/s, 93° | - | - |
| 1836273979 | 25° C | 83% | 1015.8 hPa | 0 mm | 0.45 m/s, 86° | - | - |
| 1778035804 | 22.78° C | 68% | 1016.3 hPa | 0 mm | 0.45 m/s, 162° | - | - |
| 1778035803 | 22.78° C | 68% | 1016.2 hPa | 0 mm | 0.45 m/s, 93° | - | - |
| 1778035504 | 22.78° C | 68% | 1016.2 hPa | 0 mm | 0.45 m/s, 93° | - | - |
| 1778035380 | 22.78° C | 67% | 1016.2 hPa | 0 mm | 0.45 m/s, 87° | - | - |
| 1778035204 | 22.78° C | 67% | 1016.2 hPa | 0 mm | 0.45 m/s, 87° | - | - |
| 1778035203 | 22.78° C | 67% | 1016.1 hPa | 0 mm | 0.89 m/s, 9° | - | - |
| 1778034904 | 22.78° C | 67% | 1016.1 hPa | 0 mm | 0.89 m/s, 9° | - | - |
| 1778034609 | 22.78° C | 67% | 1016 hPa | 0 mm | 0.89 m/s, 51° | - | - |
| 1778034604 | 22.78° C | 67% | 1016.1 hPa | 0 mm | 0.89 m/s, 93° | - | - |
| 1778034304 | 22.78° C | 67% | 1016 hPa | 0 mm | 0.89 m/s, 51° | - | - |
| 1778034004 | 22.78° C | 66% | 1016 hPa | 0 mm | 0.89 m/s, 93° | - | - |
| 1778033704 | 23.33° C | 66% | 1015.9 hPa | 0 mm | 0.89 m/s, 93° | - | - |
| 1778033591 | 23.33° C | 66% | 1015.8 hPa | 0 mm | 0.89 m/s, 88° | - | - |
| 1778033414 | 23.33° C | 66% | 1015.8 hPa | 0 mm | 0.89 m/s, 93° | - | - |
| 1778033404 | 23.33° C | 66% | 1015.8 hPa | 0 mm | 0.89 m/s, 88° | - | - |
| 1778033104 | 23.33° C | 66% | 1015.8 hPa | 0 mm | 0.89 m/s, 93° | - | - |
| 1778032804 | 23.33° C | 66% | 1015.7 hPa | 0 mm | 0.89 m/s, 93° | - | - |
| 1778032702 | 23.33° C | 65% | 1015.6 hPa | 0 mm | 0.89 m/s, 93° | - | - |
| 1778032504 | 23.33° C | 65% | 1015.6 hPa | 0 mm | 0.89 m/s, 93° | - | - |
* Rain latest hour (hover to see other rain measurements)
** Current wind speed in m/s (hover to see current wind gust speed)